sensor_id;sensor_type;location;lat;lon;timestamp;pressure;altitude;pressure_sealevel;temperature;humidity
12759;BME280;20944;47.048;15.390;2022-09-06T00:00:06;97996.97;;;19.01;100.00
12759;BME280;20944;47.048;15.390;2022-09-06T00:02:36;98001.34;;;19.18;100.00
12759;BME280;20944;47.048;15.390;2022-09-06T00:05:05;97999.44;;;19.20;100.00
12759;BME280;20944;47.048;15.390;2022-09-06T00:07:34;97945.13;;;18.78;100.00
12759;BME280;20944;47.048;15.390;2022-09-06T00:10:05;97980.44;;;18.96;100.00
12759;BME280;20944;47.048;15.390;2022-09-06T00:12:33;97985.06;;;18.93;100.00
12759;BME280;20944;47.048;15.390;2022-09-06T00:15:02;97975.13;;;18.80;100.00
12759;BME280;20944;47.048;15.390;2022-09-06T00:17:32;97985.13;;;18.91;100.00
12759;BME280;20944;47.048;15.390;2022-09-06T00:20:01;97991.91;;;18.97;100.00
12759;BME280;20944;47.048;15.390;2022-09-06T00:22:29;97967.16;;;18.80;100.00
12759;BME280;20944;47.048;15.390;2022-09-06T00:24:57;97978.00;;;18.92;100.00
12759;BME280;20944;47.048;15.390;2022-09-06T00:27:27;97975.31;;;18.93;100.00
12759;BME280;20944;47.048;15.390;2022-09-06T00:29:55;97995.34;;;19.14;100.00
12759;BME280;20944;47.048;15.390;2022-09-06T00:32:24;97956.78;;;18.92;100.00
12759;BME280;20944;47.048;15.390;2022-09-06T00:34:52;97987.03;;;19.05;100.00
12759;BME280;20944;47.048;15.390;2022-09-06T00:37:20;97993.72;;;18.96;100.00
12759;BME280;20944;47.048;15.390;2022-09-06T00:39:49;97993.03;;;18.93;100.00
12759;BME280;20944;47.048;15.390;2022-09-06T00:42:17;97983.19;;;18.95;100.00
12759;BME280;20944;47.048;15.390;2022-09-06T00:44:48;97974.88;;;19.01;100.00
12759;BME280;20944;47.048;15.390;2022-09-06T00:47:17;97983.25;;;19.09;100.00
12759;BME280;20944;47.048;15.390;2022-09-06T00:49:48;97984.78;;;18.97;100.00
12759;BME280;20944;47.048;15.390;2022-09-06T00:52:20;97960.19;;;18.78;100.00
12759;BME280;20944;47.048;15.390;2022-09-06T00:54:49;97967.41;;;18.92;100.00
12759;BME280;20944;47.048;15.390;2022-09-06T00:57:18;97970.34;;;18.87;100.00
12759;BME280;20944;47.048;15.390;2022-09-06T00:59:48;97953.03;;;18.80;100.00
12759;BME280;20944;47.048;15.390;2022-09-06T01:02:17;97965.03;;;18.87;100.00
12759;BME280;20944;47.048;15.390;2022-09-06T01:04:46;97973.31;;;18.81;100.00
12759;BME280;20944;47.048;15.390;2022-09-06T01:07:27;97965.25;;;18.82;100.00
12759;BME280;20944;47.048;15.390;2022-09-06T01:10:15;97959.78;;;18.85;100.00
12759;BME280;20944;47.048;15.390;2022-09-06T01:12:54;97957.06;;;18.87;100.00
12759;BME280;20944;47.048;15.390;2022-09-06T01:15:33;97953.53;;;18.86;100.00
12759;BME280;20944;47.048;15.390;2022-09-06T01:18:13;97949.16;;;18.85;100.00
12759;BME280;20944;47.048;15.390;2022-09-06T01:20:53;97953.53;;;18.86;100.00
12759;BME280;20944;47.048;15.390;2022-09-06T01:29:36;97947.19;;;18.89;100.00
12759;BME280;20944;47.048;15.390;2022-09-06T01:32:13;97927.47;;;18.77;100.00
12759;BME280;20944;47.048;15.390;2022-09-06T01:34:47;97931.69;;;18.81;100.00
12759;BME280;20944;47.048;15.390;2022-09-06T01:37:18;97909.66;;;18.64;100.00
12759;BME280;20944;47.048;15.390;2022-09-06T01:39:49;97933.31;;;18.84;100.00
12759;BME280;20944;47.048;15.390;2022-09-06T01:42:19;97933.31;;;18.84;100.00
12759;BME280;20944;47.048;15.390;2022-09-06T01:44:54;97937.16;;;18.78;100.00
12759;BME280;20944;47.048;15.390;2022-09-06T01:47:34;97934.84;;;18.72;100.00
12759;BME280;20944;47.048;15.390;2022-09-06T01:53:09;97939.16;;;18.75;100.00
12759;BME280;20944;47.048;15.390;2022-09-06T01:55:48;97922.91;;;18.64;100.00
12759;BME280;20944;47.048;15.390;2022-09-06T01:58:31;97929.50;;;18.56;100.00
12759;BME280;20944;47.048;15.390;2022-09-06T02:01:12;97934.47;;;18.63;100.00
12759;BME280;20944;47.048;15.390;2022-09-06T02:03:53;97940.75;;;18.62;100.00
12759;BME280;20944;47.048;15.390;2022-09-06T02:06:27;97896.69;;;18.26;100.00
12759;BME280;20944;47.048;15.390;2022-09-06T02:09:02;97931.72;;;18.64;100.00
12759;BME280;20944;47.048;15.390;2022-09-06T02:11:36;97928.66;;;18.56;100.00
12759;BME280;20944;47.048;15.390;2022-09-06T02:14:10;97928.13;;;18.49;100.00
12759;BME280;20944;47.048;15.390;2022-09-06T02:16:43;97910.75;;;18.44;100.00
12759;BME280;20944;47.048;15.390;2022-09-06T02:19:17;97920.41;;;18.45;100.00
12759;BME280;20944;47.048;15.390;2022-09-06T02:21:50;97919.28;;;18.33;100.00
12759;BME280;20944;47.048;15.390;2022-09-06T02:24:23;97872.25;;;18.03;100.00
12759;BME280;20944;47.048;15.390;2022-09-06T02:26:53;97914.88;;;18.16;100.00
12759;BME280;20944;47.048;15.390;2022-09-06T02:29:21;97658.22;;;16.59;100.00
12759;BME280;20944;47.048;15.390;2022-09-06T02:31:55;97917.53;;;18.16;100.00
12759;BME280;20944;47.048;15.390;2022-09-06T02:34:26;97887.06;;;17.92;100.00
12759;BME280;20944;47.048;15.390;2022-09-06T02:36:55;97917.19;;;18.06;100.00
12759;BME280;20944;47.048;15.390;2022-09-06T02:39:23;97890.16;;;17.83;100.00
12759;BME280;20944;47.048;15.390;2022-09-06T02:41:51;97916.81;;;17.97;100.00
12759;BME280;20944;47.048;15.390;2022-09-06T02:44:20;97909.16;;;17.91;100.00
12759;BME280;20944;47.048;15.390;2022-09-06T02:46:48;97910.59;;;17.98;100.00
12759;BME280;20944;47.048;15.390;2022-09-06T02:49:24;97893.13;;;17.94;100.00
12759;BME280;20944;47.048;15.390;2022-09-06T02:51:52;97922.50;;;18.06;100.00
12759;BME280;20944;47.048;15.390;2022-09-06T02:54:20;97904.13;;;17.86;100.00
12759;BME280;20944;47.048;15.390;2022-09-06T02:56:49;97923.69;;;17.84;100.00
12759;BME280;20944;47.048;15.390;2022-09-06T02:59:18;97921.53;;;17.92;100.00
12759;BME280;20944;47.048;15.390;2022-09-06T03:01:46;97904.19;;;17.85;100.00
12759;BME280;20944;47.048;15.390;2022-09-06T03:04:14;97921.00;;;17.85;100.00
12759;BME280;20944;47.048;15.390;2022-09-06T03:06:44;97917.78;;;17.78;100.00
12759;BME280;20944;47.048;15.390;2022-09-06T03:09:12;97912.56;;;17.77;100.00
12759;BME280;20944;47.048;15.390;2022-09-06T03:11:41;97902.81;;;17.77;100.00
12759;BME280;20944;47.048;15.390;2022-09-06T03:14:09;97921.97;;;17.83;100.00
12759;BME280;20944;47.048;15.390;2022-09-06T03:16:37;97908.28;;;17.74;100.00
12759;BME280;20944;47.048;15.390;2022-09-06T03:19:06;97920.28;;;17.82;100.00
12759;BME280;20944;47.048;15.390;2022-09-06T03:21:34;97902.97;;;17.74;100.00
12759;BME280;20944;47.048;15.390;2022-09-06T03:24:04;97918.41;;;17.84;100.00
12759;BME280;20944;47.048;15.390;2022-09-06T03:26:32;97882.84;;;17.53;100.00
12759;BME280;20944;47.048;15.390;2022-09-06T03:29:00;97908.66;;;17.67;100.00
12759;BME280;20944;47.048;15.390;2022-09-06T03:31:29;97903.81;;;17.58;100.00
12759;BME280;20944;47.048;15.390;2022-09-06T03:33:57;97908.13;;;17.60;100.00
12759;BME280;20944;47.048;15.390;2022-09-06T03:36:25;97901.41;;;17.53;100.00
12759;BME280;20944;47.048;15.390;2022-09-06T03:38:53;97914.72;;;17.51;100.00
12759;BME280;20944;47.048;15.390;2022-09-06T03:41:23;97845.69;;;17.20;100.00
12759;BME280;20944;47.048;15.390;2022-09-06T03:43:51;97904.75;;;17.57;100.00
12759;BME280;20944;47.048;15.390;2022-09-06T03:46:19;97897.75;;;17.56;100.00
12759;BME280;20944;47.048;15.390;2022-09-06T03:48:48;97903.19;;;17.52;100.00
12759;BME280;20944;47.048;15.390;2022-09-06T03:51:16;97900.78;;;17.48;100.00
12759;BME280;20944;47.048;15.390;2022-09-06T03:53:45;97831.47;;;17.05;100.00
12759;BME280;20944;47.048;15.390;2022-09-06T03:56:13;97888.94;;;17.38;100.00
12759;BME280;20944;47.048;15.390;2022-09-06T03:58:43;97902.50;;;17.49;100.00
12759;BME280;20944;47.048;15.390;2022-09-06T04:01:11;97903.34;;;17.49;100.00
12759;BME280;20944;47.048;15.390;2022-09-06T04:03:40;97900.84;;;17.46;100.00
12759;BME280;20944;47.048;15.390;2022-09-06T04:06:08;97899.22;;;17.44;100.00
12759;BME280;20944;47.048;15.390;2022-09-06T04:08:36;97908.75;;;17.48;100.00
12759;BME280;20944;47.048;15.390;2022-09-06T04:11:05;97912.31;;;17.47;100.00
12759;BME280;20944;47.048;15.390;2022-09-06T04:13:34;97862.22;;;17.08;100.00
12759;BME280;20944;47.048;15.390;2022-09-06T04:16:05;97908.13;;;17.43;100.00
12759;BME280;20944;47.048;15.390;2022-09-06T04:18:33;97893.91;;;17.26;100.00
12759;BME280;20944;47.048;15.390;2022-09-06T04:21:02;97910.44;;;17.32;100.00
12759;BME280;20944;47.048;15.390;2022-09-06T04:23:30;97907.09;;;17.45;100.00
12759;BME280;20944;47.048;15.390;2022-09-06T04:26:05;97897.44;;;17.44;100.00
12759;BME280;20944;47.048;15.390;2022-09-06T04:28:33;97900.78;;;17.48;100.00
12759;BME280;20944;47.048;15.390;2022-09-06T04:31:02;97888.22;;;17.34;100.00
12759;BME280;20944;47.048;15.390;2022-09-06T04:33:33;97894.16;;;17.39;100.00
12759;BME280;20944;47.048;15.390;2022-09-06T04:36:05;97885.03;;;17.45;100.00
12759;BME280;20944;47.048;15.390;2022-09-06T04:38:35;97902.59;;;17.47;100.00
12759;BME280;20944;47.048;15.390;2022-09-06T04:41:05;97882.78;;;17.37;100.00
12759;BME280;20944;47.048;15.390;2022-09-06T04:43:34;97898.28;;;17.45;100.00
12759;BME280;20944;47.048;15.390;2022-09-06T04:46:03;97896.41;;;17.47;100.00
12759;BME280;20944;47.048;15.390;2022-09-06T04:48:33;97894.47;;;17.50;100.00
12759;BME280;20944;47.048;15.390;2022-09-06T04:51:02;97884.03;;;17.47;100.00
12759;BME280;20944;47.048;15.390;2022-09-06T04:53:30;97895.72;;;17.61;100.00
12759;BME280;20944;47.048;15.390;2022-09-06T04:55:59;97898.06;;;17.67;100.00
12759;BME280;20944;47.048;15.390;2022-09-06T04:58:27;97883.94;;;17.66;100.00
12759;BME280;20944;47.048;15.390;2022-09-06T05:00:55;97902.66;;;17.81;100.00
12759;BME280;20944;47.048;15.390;2022-09-06T05:03:23;97901.41;;;17.88;100.00
12759;BME280;20944;47.048;15.390;2022-09-06T05:06:02;97903.81;;;17.92;100.00
12759;BME280;20944;47.048;15.390;2022-09-06T05:08:31;97904.34;;;17.99;100.00
12759;BME280;20944;47.048;15.390;2022-09-06T05:10:59;97908.19;;;18.09;100.00
12759;BME280;20944;47.048;15.390;2022-09-06T05:13:27;97889.06;;;18.04;100.00
12759;BME280;20944;47.048;15.390;2022-09-06T05:15:59;97894.69;;;18.14;100.00
12759;BME280;20944;47.048;15.390;2022-09-06T05:18:28;97920.03;;;18.19;100.00
12759;BME280;20944;47.048;15.390;2022-09-06T05:20:58;97892.47;;;18.06;100.00
12759;BME280;20944;47.048;15.390;2022-09-06T05:23:27;97897.88;;;18.20;100.00
12759;BME280;20944;47.048;15.390;2022-09-06T05:25:56;97907.69;;;18.36;100.00
12759;BME280;20944;47.048;15.390;2022-09-06T05:28:24;97897.31;;;18.31;100.00
12759;BME280;20944;47.048;15.390;2022-09-06T05:30:52;97913.22;;;18.47;100.00
12759;BME280;20944;47.048;15.390;2022-09-06T05:33:21;97872.47;;;18.32;100.00
12759;BME280;20944;47.048;15.390;2022-09-06T05:35:51;97913.25;;;18.63;100.00
12759;BME280;20944;47.048;15.390;2022-09-06T05:38:20;97918.72;;;18.59;100.00
12759;BME280;20944;47.048;15.390;2022-09-06T05:40:49;97916.50;;;18.52;100.00
12759;BME280;20944;47.048;15.390;2022-09-06T05:43:17;97913.06;;;18.50;100.00
12759;BME280;20944;47.048;15.390;2022-09-06T05:45:46;97913.91;;;18.50;100.00
12759;BME280;20944;47.048;15.390;2022-09-06T05:48:14;97899.91;;;18.48;100.00
12759;BME280;20944;47.048;15.390;2022-09-06T05:50:43;97913.16;;;18.64;100.00
12759;BME280;20944;47.048;15.390;2022-09-06T05:53:11;97907.63;;;18.69;100.00
12759;BME280;20944;47.048;15.390;2022-09-06T05:55:41;97891.06;;;18.64;100.00
12759;BME280;20944;47.048;15.390;2022-09-06T05:58:09;97916.00;;;18.61;100.00
12759;BME280;20944;47.048;15.390;2022-09-06T06:00:37;97905.72;;;18.55;100.00
12759;BME280;20944;47.048;15.390;2022-09-06T06:03:05;97903.63;;;18.60;100.00
12759;BME280;20944;47.048;15.390;2022-09-06T06:05:33;97906.91;;;18.65;100.00
12759;BME280;20944;47.048;15.390;2022-09-06T06:08:02;97907.75;;;18.66;100.00
12759;BME280;20944;47.048;15.390;2022-09-06T06:10:30;97900.06;;;18.61;100.00
12759;BME280;20944;47.048;15.390;2022-09-06T06:13:05;97913.78;;;18.69;100.00
12759;BME280;20944;47.048;15.390;2022-09-06T06:15:33;97887.13;;;18.55;100.00
12759;BME280;20944;47.048;15.390;2022-09-06T06:18:01;97913.09;;;18.81;100.00
12759;BME280;20944;47.048;15.390;2022-09-06T06:20:30;97811.34;;;18.33;100.00
12759;BME280;20944;47.048;15.390;2022-09-06T06:22:58;97894.78;;;18.93;100.00
12759;BME280;20944;47.048;15.390;2022-09-06T06:25:26;97902.03;;;19.05;100.00
12759;BME280;20944;47.048;15.390;2022-09-06T06:27:54;97912.63;;;19.21;100.00
12759;BME280;20944;47.048;15.390;2022-09-06T06:30:24;97893.13;;;19.06;100.00
12759;BME280;20944;47.048;15.390;2022-09-06T06:32:53;97909.06;;;19.06;100.00
12759;BME280;20944;47.048;15.390;2022-09-06T06:35:21;97886.97;;;18.90;100.00
12759;BME280;20944;47.048;15.390;2022-09-06T06:37:49;97898.53;;;18.89;100.00
12759;BME280;20944;47.048;15.390;2022-09-06T06:40:17;97877.88;;;18.62;100.00
12759;BME280;20944;47.048;15.390;2022-09-06T06:42:46;97886.03;;;18.75;100.00
12759;BME280;20944;47.048;15.390;2022-09-06T06:45:14;97910.16;;;19.02;100.00
12759;BME280;20944;47.048;15.390;2022-09-06T06:47:48;97892.25;;;19.05;100.00
12759;BME280;20944;47.048;15.390;2022-09-06T06:50:16;97910.00;;;19.35;100.00
12759;BME280;20944;47.048;15.390;2022-09-06T06:52:44;97913.22;;;19.56;100.00
12759;BME280;20944;47.048;15.390;2022-09-06T06:55:12;97904.81;;;19.63;100.00
12759;BME280;20944;47.048;15.390;2022-09-06T06:57:41;97908.66;;;20.02;100.00
12759;BME280;20944;47.048;15.390;2022-09-06T07:00:10;97910.94;;;20.23;100.00
12759;BME280;20944;47.048;15.390;2022-09-06T07:02:38;97902.66;;;20.27;100.00
12759;BME280;20944;47.048;15.390;2022-09-06T07:05:08;97911.34;;;20.45;100.00
12759;BME280;20944;47.048;15.390;2022-09-06T07:07:56;97898.66;;;20.48;100.00
12759;BME280;20944;47.048;15.390;2022-09-06T07:10:25;97907.44;;;20.51;100.00
12759;BME280;20944;47.048;15.390;2022-09-06T07:13:01;97915.94;;;20.41;100.00
12759;BME280;20944;47.048;15.390;2022-09-06T07:15:30;97883.47;;;20.22;100.00
12759;BME280;20944;47.048;15.390;2022-09-06T07:17:58;97899.13;;;20.55;100.00
12759;BME280;20944;47.048;15.390;2022-09-06T07:20:28;97912.63;;;20.81;100.00
12759;BME280;20944;47.048;15.390;2022-09-06T07:22:57;97903.72;;;20.94;100.00
12759;BME280;20944;47.048;15.390;2022-09-06T07:25:46;97914.88;;;21.14;100.00
12759;BME280;20944;47.048;15.390;2022-09-06T07:28:14;97914.72;;;21.02;100.00
12759;BME280;20944;47.048;15.390;2022-09-06T07:30:42;97906.50;;;21.06;100.00
12759;BME280;20944;47.048;15.390;2022-09-06T07:33:11;97907.72;;;21.14;100.00
12759;BME280;20944;47.048;15.390;2022-09-06T07:35:40;97900.38;;;21.32;100.00
12759;BME280;20944;47.048;15.390;2022-09-06T07:38:09;97909.28;;;21.58;100.00
12759;BME280;20944;47.048;15.390;2022-09-06T07:40:37;97910.75;;;21.62;100.00
12759;BME280;20944;47.048;15.390;2022-09-06T07:43:05;97893.78;;;21.50;100.00
12759;BME280;20944;47.048;15.390;2022-09-06T07:45:33;97902.97;;;21.59;100.00
12759;BME280;20944;47.048;15.390;2022-09-06T07:48:01;97915.03;;;21.65;100.00
12759;BME280;20944;47.048;15.390;2022-09-06T07:50:30;97906.72;;;21.57;100.00
12759;BME280;20944;47.048;15.390;2022-09-06T07:53:17;97914.31;;;21.63;100.00
12759;BME280;20944;47.048;15.390;2022-09-06T07:58:24;97904.38;;;21.65;100.00
12759;BME280;20944;47.048;15.390;2022-09-06T08:00:52;97909.28;;;21.71;100.00
12759;BME280;20944;47.048;15.390;2022-09-06T08:03:20;97909.84;;;21.76;100.00
12759;BME280;20944;47.048;15.390;2022-09-06T08:05:49;97903.31;;;21.93;100.00
12759;BME280;20944;47.048;15.390;2022-09-06T08:08:34;97917.63;;;22.04;100.00
12759;BME280;20944;47.048;15.390;2022-09-06T08:11:23;97873.88;;;21.81;100.00
12759;BME280;20944;47.048;15.390;2022-09-06T08:13:53;97880.25;;;21.79;100.00
12759;BME280;20944;47.048;15.390;2022-09-06T08:16:23;97902.69;;;21.89;100.00
12759;BME280;20944;47.048;15.390;2022-09-06T08:18:52;97901.59;;;21.92;100.00
12759;BME280;20944;47.048;15.390;2022-09-06T08:21:22;97912.41;;;22.03;100.00
12759;BME280;20944;47.048;15.390;2022-09-06T08:23:54;97829.03;;;21.48;100.00
12759;BME280;20944;47.048;15.390;2022-09-06T08:26:24;97912.50;;;22.01;100.00
12759;BME280;20944;47.048;15.390;2022-09-06T08:28:53;97887.72;;;21.99;100.00
12759;BME280;20944;47.048;15.390;2022-09-06T08:31:22;97910.41;;;22.32;100.00
12759;BME280;20944;47.048;15.390;2022-09-06T08:33:51;97902.13;;;22.48;100.00
12759;BME280;20944;47.048;15.390;2022-09-06T08:36:19;97908.72;;;22.68;100.00
12759;BME280;20944;47.048;15.390;2022-09-06T08:38:47;97902.34;;;22.81;100.00
12759;BME280;20944;47.048;15.390;2022-09-06T08:41:23;97898.47;;;22.98;100.00
12759;BME280;20944;47.048;15.390;2022-09-06T08:43:54;97902.31;;;23.07;100.00
12759;BME280;20944;47.048;15.390;2022-09-06T08:46:49;97786.28;;;22.25;100.00
12759;BME280;20944;47.048;15.390;2022-09-06T08:49:19;97896.81;;;22.84;100.00
12759;BME280;20944;47.048;15.390;2022-09-06T08:52:01;97889.09;;;22.80;100.00
12759;BME280;20944;47.048;15.390;2022-09-06T08:54:37;97891.66;;;22.94;100.00
12759;BME280;20944;47.048;15.390;2022-09-06T08:57:13;97901.50;;;22.94;100.00
12759;BME280;20944;47.048;15.390;2022-09-06T08:59:43;97904.09;;;22.82;100.00
12759;BME280;20944;47.048;15.390;2022-09-06T09:02:14;97899.50;;;22.72;100.00
12759;BME280;20944;47.048;15.390;2022-09-06T09:04:47;97892.53;;;22.82;100.00
12759;BME280;20944;47.048;15.390;2022-09-06T09:07:31;97879.25;;;22.93;100.00
12759;BME280;20944;47.048;15.390;2022-09-06T09:10:06;97898.09;;;23.15;100.00
12759;BME280;20944;47.048;15.390;2022-09-06T09:12:43;97887.22;;;23.30;100.00
12759;BME280;20944;47.048;15.390;2022-09-06T09:15:13;97863.13;;;23.30;100.00
12759;BME280;20944;47.048;15.390;2022-09-06T09:17:42;97884.84;;;23.49;100.00
12759;BME280;20944;47.048;15.390;2022-09-06T09:20:12;97893.00;;;23.48;100.00
12759;BME280;20944;47.048;15.390;2022-09-06T09:22:40;97796.78;;;23.00;100.00
12759;BME280;20944;47.048;15.390;2022-09-06T09:25:15;97814.56;;;23.12;100.00
12759;BME280;20944;47.048;15.390;2022-09-06T09:27:47;97883.47;;;23.67;100.00
12759;BME280;20944;47.048;15.390;2022-09-06T09:30:24;97836.91;;;23.35;100.00
12759;BME280;20944;47.048;15.390;2022-09-06T09:33:27;97855.72;;;23.68;100.00
12759;BME280;20944;47.048;15.390;2022-09-06T09:35:57;97853.09;;;23.80;100.00
12759;BME280;20944;47.048;15.390;2022-09-06T09:38:29;97833.00;;;23.74;100.00
12759;BME280;20944;47.048;15.390;2022-09-06T09:41:00;97804.53;;;23.73;100.00
12759;BME280;20944;47.048;15.390;2022-09-06T09:43:33;97841.91;;;24.08;100.00
12759;BME280;20944;47.048;15.390;2022-09-06T09:46:12;97813.19;;;23.99;100.00
12759;BME280;20944;47.048;15.390;2022-09-06T09:48:44;97815.88;;;24.21;100.00
12759;BME280;20944;47.048;15.390;2022-09-06T09:51:21;97846.78;;;24.37;100.00
12759;BME280;20944;47.048;15.390;2022-09-06T09:53:54;97840.69;;;24.23;100.00
12759;BME280;20944;47.048;15.390;2022-09-06T09:56:28;97830.97;;;24.34;100.00
12759;BME280;20944;47.048;15.390;2022-09-06T09:59:04;97813.28;;;24.31;100.00
12759;BME280;20944;47.048;15.390;2022-09-06T10:01:35;97830.34;;;24.30;100.00
12759;BME280;20944;47.048;15.390;2022-09-06T10:04:06;97827.06;;;24.04;100.00
12759;BME280;20944;47.048;15.390;2022-09-06T10:07:09;97832.06;;;24.09;100.00
12759;BME280;20944;47.048;15.390;2022-09-06T10:09:40;97826.81;;;24.18;100.00
12759;BME280;20944;47.048;15.390;2022-09-06T10:12:15;97820.00;;;24.14;100.00
12759;BME280;20944;47.048;15.390;2022-09-06T10:14:47;97814.03;;;24.22;100.00
12759;BME280;20944;47.048;15.390;2022-09-06T10:17:22;97808.19;;;24.28;100.00
12759;BME280;20944;47.048;15.390;2022-09-06T10:19:56;97780.81;;;24.02;100.00
12759;BME280;20944;47.048;15.390;2022-09-06T10:22:29;97811.22;;;24.23;100.00
12759;BME280;20944;47.048;15.390;2022-09-06T10:34:03;97810.66;;;24.74;100.00
12759;BME280;20944;47.048;15.390;2022-09-06T10:36:39;97811.97;;;24.91;100.00
12759;BME280;20944;47.048;15.390;2022-09-06T10:39:29;97792.06;;;24.94;100.00
12759;BME280;20944;47.048;15.390;2022-09-06T10:42:12;97803.81;;;24.82;100.00
12759;BME280;20944;47.048;15.390;2022-09-06T10:44:56;97739.41;;;24.40;100.00
12759;BME280;20944;47.048;15.390;2022-09-06T10:47:33;97801.09;;;24.93;100.00
12759;BME280;20944;47.048;15.390;2022-09-06T10:50:03;97805.81;;;25.12;100.00
12759;BME280;20944;47.048;15.390;2022-09-06T10:52:36;97811.13;;;25.23;100.00
12759;BME280;20944;47.048;15.390;2022-09-06T10:55:10;97803.53;;;25.28;100.00
12759;BME280;20944;47.048;15.390;2022-09-06T10:57:44;97808.25;;;25.36;100.00
12759;BME280;20944;47.048;15.390;2022-09-06T11:00:38;97800.44;;;25.33;100.00
12759;BME280;20944;47.048;15.390;2022-09-06T11:03:15;97785.94;;;25.35;99.39
12759;BME280;20944;47.048;15.390;2022-09-06T11:06:08;97780.50;;;25.46;99.13
12759;BME280;20944;47.048;15.390;2022-09-06T11:08:42;97771.59;;;25.46;98.69
12759;BME280;20944;47.048;15.390;2022-09-06T11:11:18;97780.47;;;25.67;100.00
12759;BME280;20944;47.048;15.390;2022-09-06T11:13:49;97778.00;;;25.75;100.00
12759;BME280;20944;47.048;15.390;2022-09-06T11:16:21;97784.53;;;25.82;99.27
12759;BME280;20944;47.048;15.390;2022-09-06T11:18:56;97758.53;;;25.62;97.93
12759;BME280;20944;47.048;15.390;2022-09-06T11:24:34;97769.34;;;25.72;100.00
12759;BME280;20944;47.048;15.390;2022-09-06T11:27:11;97744.53;;;25.79;100.00
12759;BME280;20944;47.048;15.390;2022-09-06T11:29:44;97766.69;;;26.02;100.00
12759;BME280;20944;47.048;15.390;2022-09-06T11:32:29;97764.00;;;26.02;98.35
12759;BME280;20944;47.048;15.390;2022-09-06T11:35:03;97753.66;;;25.98;99.09
12759;BME280;20944;47.048;15.390;2022-09-06T11:37:35;97757.94;;;26.20;100.00
12759;BME280;20944;47.048;15.390;2022-09-06T11:40:11;97752.84;;;26.47;100.00
12759;BME280;20944;47.048;15.390;2022-09-06T11:43:12;97716.63;;;26.61;99.02
12759;BME280;20944;47.048;15.390;2022-09-06T11:45:44;97728.81;;;26.84;91.35
12759;BME280;20944;47.048;15.390;2022-09-06T11:48:42;97742.50;;;27.01;97.60
12759;BME280;20944;47.048;15.390;2022-09-06T11:51:35;97727.06;;;26.83;93.00
12759;BME280;20944;47.048;15.390;2022-09-06T11:54:26;97725.69;;;26.60;93.47
12759;BME280;20944;47.048;15.390;2022-09-06T11:57:00;97733.88;;;26.68;94.46
12759;BME280;20944;47.048;15.390;2022-09-06T11:59:35;97723.97;;;26.69;94.44
12759;BME280;20944;47.048;15.390;2022-09-06T12:02:06;97729.91;;;26.82;97.70
12759;BME280;20944;47.048;15.390;2022-09-06T12:05:18;97721.69;;;27.03;68.00
12759;BME280;20944;47.048;15.390;2022-09-06T12:08:29;97724.53;;;27.21;67.82
12759;BME280;20944;47.048;15.390;2022-09-06T12:11:23;97695.50;;;27.24;71.24
12759;BME280;20944;47.048;15.390;2022-09-06T12:13:59;97630.34;;;27.21;68.42
12759;BME280;20944;47.048;15.390;2022-09-06T12:19:56;97698.94;;;28.46;62.25
12759;BME280;20944;47.048;15.390;2022-09-06T12:23:02;97684.38;;;28.11;61.80
12759;BME280;20944;47.048;15.390;2022-09-06T12:25:54;97703.19;;;27.56;64.41
12759;BME280;20944;47.048;15.390;2022-09-06T12:28:27;97657.84;;;27.05;65.56
12759;BME280;20944;47.048;15.390;2022-09-06T12:30:57;97690.84;;;27.07;66.58
12759;BME280;20944;47.048;15.390;2022-09-06T12:33:29;97674.72;;;26.78;66.19
12759;BME280;20944;47.048;15.390;2022-09-06T12:36:12;97674.97;;;27.04;68.16
12759;BME280;20944;47.048;15.390;2022-09-06T12:38:53;97678.50;;;27.24;66.27
12759;BME280;20944;47.048;15.390;2022-09-06T12:41:23;97614.13;;;26.83;65.83
12759;BME280;20944;47.048;15.390;2022-09-06T12:43:53;97678.44;;;27.43;63.92
12759;BME280;20944;47.048;15.390;2022-09-06T12:46:24;97685.09;;;27.49;64.51
12759;BME280;20944;47.048;15.390;2022-09-06T12:49:00;97676.91;;;27.78;62.65
12759;BME280;20944;47.048;15.390;2022-09-06T12:51:29;97671.13;;;27.73;60.58
12759;BME280;20944;47.048;15.390;2022-09-06T12:53:59;97670.28;;;28.00;61.96
12759;BME280;20944;47.048;15.390;2022-09-06T12:56:31;97641.09;;;28.13;60.53
12759;BME280;20944;47.048;15.390;2022-09-06T12:59:14;97660.22;;;28.19;60.95
12759;BME280;20944;47.048;15.390;2022-09-06T13:01:48;97645.22;;;27.89;59.31
12759;BME280;20944;47.048;15.390;2022-09-06T13:04:25;97650.81;;;27.78;62.16
12759;BME280;20944;47.048;15.390;2022-09-06T13:06:54;97651.41;;;28.00;60.60
12759;BME280;20944;47.048;15.390;2022-09-06T13:09:24;97644.38;;;28.34;60.57
12759;BME280;20944;47.048;15.390;2022-09-06T13:12:02;97651.56;;;28.43;57.96
12759;BME280;20944;47.048;15.390;2022-09-06T13:14:32;97651.84;;;28.22;59.88
12759;BME280;20944;47.048;15.390;2022-09-06T13:17:01;97650.81;;;28.06;60.15
12759;BME280;20944;47.048;15.390;2022-09-06T13:19:32;97643.59;;;27.79;59.72
12759;BME280;20944;47.048;15.390;2022-09-06T13:22:03;97619.91;;;27.45;60.81
12759;BME280;20944;47.048;15.390;2022-09-06T13:24:44;97640.19;;;27.77;63.07
12759;BME280;20944;47.048;15.390;2022-09-06T13:27:35;97648.00;;;28.61;61.33
12759;BME280;20944;47.048;15.390;2022-09-06T13:30:05;97635.41;;;28.87;56.15
12759;BME280;20944;47.048;15.390;2022-09-06T13:32:36;97640.47;;;29.08;56.78
12759;BME280;20944;47.048;15.390;2022-09-06T13:35:21;97623.63;;;29.40;54.20